createdAt,value
2023-02-09T00:01:31.467Z,62.93
2023-02-09T00:03:59.790Z,63.67
2023-02-09T00:06:29.842Z,62.61
2023-02-09T00:08:58.322Z,63.72
2023-02-09T00:11:48.377Z,63.09
2023-02-09T00:14:21.539Z,63.57
2023-02-09T00:16:49.722Z,64.42
2023-02-09T00:19:18.569Z,63.55
2023-02-09T00:21:46.425Z,63.68
2023-02-09T00:24:14.901Z,63.63
2023-02-09T00:26:43.281Z,63.20
2023-02-09T00:29:11.764Z,62.93
2023-02-09T00:31:41.147Z,62.00
2023-02-09T00:34:09.481Z,62.63
2023-02-09T00:36:37.237Z,62.28
2023-02-09T00:39:05.497Z,62.79
2023-02-09T00:41:59.601Z,61.21
2023-02-09T00:44:28.919Z,60.36
2023-02-09T00:46:58.003Z,60.56
2023-02-09T00:49:25.814Z,61.58
2023-02-09T00:51:53.922Z,61.33
2023-02-09T00:54:21.625Z,60.92
2023-02-09T00:56:49.497Z,60.96
2023-02-09T00:59:17.969Z,61.97
2023-02-09T01:01:45.782Z,62.12
2023-02-09T01:04:14.897Z,62.21
2023-02-09T01:06:42.663Z,62.83
2023-02-09T01:09:10.338Z,63.42
2023-02-09T01:11:39.831Z,61.70
2023-02-09T01:14:07.626Z,61.27
2023-02-09T01:16:35.496Z,60.02
2023-02-09T01:19:04.834Z,60.87
2023-02-09T01:21:33.991Z,62.22
2023-02-09T01:24:02.388Z,63.65
2023-02-09T01:26:30.200Z,62.63
2023-02-09T01:28:57.895Z,62.72
2023-02-09T01:31:27.623Z,63.73
2023-02-09T01:33:56.822Z,63.13
2023-02-09T01:36:27.708Z,63.49
2023-02-09T01:38:58.406Z,63.67
2023-02-09T01:41:27.315Z,63.30
2023-02-09T01:43:59.357Z,62.51
2023-02-09T01:46:30.592Z,62.06
2023-02-09T01:49:04.462Z,61.90
2023-02-09T01:51:35.833Z,63.74
2023-02-09T01:54:09.225Z,63.92
2023-02-09T01:56:39.970Z,64.29
2023-02-09T01:59:08.900Z,64.33
2023-02-09T02:01:38.899Z,64.84
2023-02-09T02:04:07.394Z,65.99
2023-02-09T02:06:37.558Z,66.12
2023-02-09T02:09:11.415Z,66.36
2023-02-09T02:11:41.081Z,66.54
2023-02-09T02:14:29.413Z,64.97
2023-02-09T02:17:09.075Z,65.07
2023-02-09T02:20:23.650Z,63.62
2023-02-09T02:23:16.741Z,61.35
2023-02-09T02:26:13.281Z,61.83
2023-02-09T02:28:46.027Z,62.01
2023-02-09T02:31:32.913Z,60.61
2023-02-09T02:34:07.422Z,62.42
2023-02-09T02:36:43.636Z,63.40
2023-02-09T02:39:18.967Z,62.53
2023-02-09T02:42:10.680Z,63.07
2023-02-09T02:44:42.883Z,60.93
2023-02-09T02:47:16.931Z,61.17
2023-02-09T02:49:50.433Z,62.08
2023-02-09T02:52:18.307Z,62.17
2023-02-09T02:54:51.075Z,62.48
2023-02-09T02:57:22.424Z,62.08
2023-02-09T02:59:55.877Z,63.34
2023-02-09T03:02:30.950Z,62.37
2023-02-09T03:05:00.722Z,61.46
2023-02-09T03:07:28.518Z,62.84
2023-02-09T03:09:57.827Z,63.15
2023-02-09T03:12:35.361Z,63.41
2023-02-09T03:15:19.470Z,63.83
2023-02-09T03:17:57.773Z,63.35
2023-02-09T03:20:32.858Z,63.90
2023-02-09T03:23:03.415Z,62.06
2023-02-09T03:25:35.399Z,63.61
2023-02-09T03:28:08.404Z,64.32
2023-02-09T03:30:37.953Z,63.60
2023-02-09T03:33:10.398Z,62.49
2023-02-09T03:35:40.245Z,62.81
2023-02-09T03:38:08.072Z,63.22
2023-02-09T03:40:36.201Z,61.60
2023-02-09T03:43:03.947Z,62.33
2023-02-09T03:45:31.714Z,62.63
2023-02-09T03:47:59.417Z,62.11
2023-02-09T03:50:29.862Z,61.85
2023-02-09T03:52:57.546Z,61.86
2023-02-09T03:55:25.389Z,62.32
2023-02-09T03:57:53.245Z,61.65
2023-02-09T04:00:21.510Z,61.95
2023-02-09T04:02:49.360Z,62.47
2023-02-09T04:05:17.122Z,62.43
2023-02-09T04:07:46.364Z,61.74
2023-02-09T04:10:14.114Z,62.34
2023-02-09T04:12:41.817Z,63.07
2023-02-09T04:15:10.571Z,62.58
2023-02-09T04:17:38.393Z,63.60
2023-02-09T04:20:06.908Z,63.78
2023-02-09T04:22:34.712Z,64.45
2023-02-09T04:25:04.145Z,63.35
2023-02-09T04:27:31.923Z,63.10
2023-02-09T04:29:59.709Z,62.22
2023-02-09T04:32:27.438Z,62.22
2023-02-09T04:34:55.228Z,64.05
2023-02-09T04:37:22.934Z,63.01
2023-02-09T04:39:50.700Z,62.65
2023-02-09T04:42:19.851Z,63.25
2023-02-09T04:44:47.569Z,63.33
2023-02-09T04:47:15.299Z,63.23
2023-02-09T04:49:44.456Z,64.09
2023-02-09T04:52:12.345Z,63.05
2023-02-09T04:54:40.092Z,62.96
2023-02-09T04:57:25.224Z,63.53
2023-02-09T04:59:54.297Z,63.76
2023-02-09T05:02:22.067Z,64.72
2023-02-09T05:04:49.781Z,64.81
2023-02-09T05:07:17.528Z,65.30
2023-02-09T05:09:45.233Z,65.58
2023-02-09T05:12:13.058Z,65.98
2023-02-09T05:14:40.863Z,64.82
2023-02-09T05:17:10.008Z,64.45
2023-02-09T05:19:37.858Z,64.98
2023-02-09T05:22:05.656Z,65.13
2023-02-09T05:24:33.417Z,65.45
2023-02-09T05:27:01.185Z,65.43
2023-02-09T05:29:29.048Z,67.10
2023-02-09T05:31:56.899Z,66.09
2023-02-09T05:34:26.121Z,66.56
2023-02-09T05:36:53.819Z,67.76
2023-02-09T05:39:21.792Z,66.80
2023-02-09T05:42:06.843Z,65.89
2023-02-09T05:44:34.651Z,66.81
2023-02-09T05:47:02.390Z,67.32
2023-02-09T05:49:31.580Z,66.32
2023-02-09T05:51:59.286Z,67.62
2023-02-09T05:54:27.093Z,68.40
2023-02-09T05:56:54.814Z,67.19
2023-02-09T05:59:23.193Z,67.55
2023-02-09T06:01:51.300Z,68.74
2023-02-09T06:04:19.096Z,69.17
2023-02-09T06:06:48.380Z,67.49
2023-02-09T06:09:16.270Z,66.85
2023-02-09T06:11:44.013Z,67.16
2023-02-09T06:14:12.266Z,67.09
2023-02-09T06:16:41.609Z,67.91
2023-02-09T06:19:13.519Z,67.52
2023-02-09T06:21:41.311Z,66.81
2023-02-09T06:24:10.521Z,65.91
2023-02-09T06:26:38.462Z,66.77
2023-02-09T06:29:06.199Z,66.08
2023-02-09T06:31:34.100Z,64.45
2023-02-09T06:34:01.952Z,65.99
2023-02-09T06:36:29.708Z,64.56
2023-02-09T06:38:57.555Z,65.48
2023-02-09T06:41:26.759Z,65.58
2023-02-09T06:43:54.742Z,65.79
2023-02-09T06:46:22.575Z,66.67
2023-02-09T06:48:51.113Z,65.30
2023-02-09T06:51:18.973Z,66.13
2023-02-09T06:53:47.109Z,66.33
2023-02-09T06:56:15.245Z,65.33
2023-02-09T06:58:44.439Z,66.32
2023-02-09T07:01:15.654Z,66.94
2023-02-09T07:03:44.136Z,66.37
2023-02-09T07:06:14.176Z,66.53
2023-02-09T07:08:42.564Z,66.77
2023-02-09T07:11:13.007Z,69.00
2023-02-09T07:13:40.859Z,66.70
2023-02-09T07:16:11.936Z,65.97
2023-02-09T07:18:40.828Z,65.95
2023-02-09T07:21:10.466Z,65.74
2023-02-09T07:23:39.049Z,65.72
2023-02-09T07:26:08.568Z,66.88
2023-02-09T07:28:37.138Z,66.85
2023-02-09T07:31:07.200Z,66.39
2023-02-09T07:33:37.265Z,68.00
2023-02-09T07:36:05.793Z,67.69
2023-02-09T07:38:34.829Z,67.39
2023-02-09T07:41:03.908Z,67.47
2023-02-09T07:43:32.088Z,66.73
2023-02-09T07:46:04.808Z,65.97
2023-02-09T07:48:33.116Z,66.19
2023-02-09T07:51:02.256Z,65.13
2023-02-09T07:53:30.061Z,65.48
2023-02-09T07:55:58.134Z,64.09
2023-02-09T07:58:25.873Z,64.40
2023-02-09T08:00:53.655Z,64.43
2023-02-09T08:03:24.956Z,65.79
2023-02-09T08:05:58.467Z,65.12
2023-02-09T08:08:27.601Z,65.42
2023-02-09T08:10:57.824Z,64.59
2023-02-09T08:13:27.359Z,64.73
2023-02-09T08:15:59.372Z,65.59
2023-02-09T08:18:32.911Z,65.18
2023-02-09T08:21:00.899Z,64.91
2023-02-09T08:23:34.640Z,63.37
2023-02-09T08:26:07.492Z,65.81
2023-02-09T08:28:44.145Z,65.66
2023-02-09T08:31:12.910Z,65.03
2023-02-09T08:33:40.799Z,65.16
2023-02-09T08:36:09.056Z,65.66
2023-02-09T08:38:38.455Z,67.22
2023-02-09T08:41:06.961Z,66.36
2023-02-09T08:43:35.407Z,66.15
2023-02-09T08:46:04.187Z,64.72
2023-02-09T08:48:33.749Z,65.24
2023-02-09T08:51:03.156Z,67.62
2023-02-09T08:53:30.925Z,67.09
2023-02-09T08:56:00.474Z,66.24
2023-02-09T08:58:30.177Z,64.39
2023-02-09T09:00:59.929Z,62.80
2023-02-09T09:03:31.343Z,63.10
2023-02-09T09:06:00.627Z,63.41
2023-02-09T09:08:29.102Z,63.80
2023-02-09T09:10:56.918Z,64.32
2023-02-09T09:13:26.719Z,63.21
2023-02-09T09:15:55.758Z,63.17
2023-02-09T09:18:24.204Z,64.41
2023-02-09T09:20:52.310Z,65.32
2023-02-09T09:23:21.137Z,64.74
2023-02-09T09:25:49.460Z,62.39
2023-02-09T09:28:20.315Z,60.95
2023-02-09T09:30:49.415Z,61.91
2023-02-09T09:33:17.203Z,62.37
2023-02-09T09:35:45.144Z,61.22
2023-02-09T09:38:13.143Z,62.54
2023-02-09T09:40:42.860Z,62.85
2023-02-09T09:43:23.328Z,61.73
2023-02-09T09:45:52.623Z,61.34
2023-02-09T09:48:24.902Z,61.57
2023-02-09T09:50:56.813Z,60.74
2023-02-09T09:53:33.034Z,60.15
2023-02-09T09:56:05.124Z,60.06
2023-02-09T09:58:35.190Z,59.22
2023-02-09T10:01:04.506Z,59.71
2023-02-09T10:03:32.353Z,58.68
2023-02-09T10:06:02.850Z,58.69
2023-02-09T10:08:34.371Z,58.07
2023-02-09T10:11:05.806Z,58.15
2023-02-09T10:13:36.678Z,57.74
2023-02-09T10:16:16.091Z,57.38
2023-02-09T10:18:44.518Z,57.49
2023-02-09T10:21:15.462Z,58.15
2023-02-09T10:23:45.664Z,57.90
2023-02-09T10:26:24.522Z,57.61
2023-02-09T10:28:54.278Z,56.30
2023-02-09T10:31:26.156Z,56.43
2023-02-09T10:33:59.494Z,55.42
2023-02-09T10:36:30.294Z,54.82
2023-02-09T10:39:13.826Z,54.49
2023-02-09T10:41:43.860Z,55.25
2023-02-09T10:44:20.151Z,54.88
2023-02-09T10:46:49.559Z,54.04
2023-02-09T10:49:32.448Z,53.91
2023-02-09T10:52:08.067Z,53.43
2023-02-09T10:54:35.813Z,53.48
2023-02-09T10:57:03.613Z,53.97
2023-02-09T10:59:31.548Z,52.46
2023-02-09T11:02:03.197Z,53.00
2023-02-09T11:04:39.311Z,52.92
2023-02-09T11:07:12.026Z,53.29
2023-02-09T11:09:45.491Z,51.82
2023-02-09T11:12:13.909Z,52.32
2023-02-09T11:14:42.892Z,51.34
2023-02-09T11:17:17.474Z,51.65
2023-02-09T11:20:20.786Z,52.11
2023-02-09T11:23:15.113Z,52.27
2023-02-09T11:25:51.149Z,50.59
2023-02-09T11:28:36.060Z,50.52
2023-02-09T11:31:33.628Z,50.94
2023-02-09T11:34:13.260Z,50.81
2023-02-09T11:36:49.338Z,50.67
2023-02-09T11:39:23.168Z,49.53
2023-02-09T11:42:13.980Z,48.59
2023-02-09T11:44:47.995Z,49.85
2023-02-09T11:47:20.374Z,49.95
2023-02-09T11:49:51.944Z,50.38
2023-02-09T11:52:26.043Z,49.74
2023-02-09T11:55:00.584Z,49.36
2023-02-09T11:57:36.223Z,49.46
2023-02-09T12:00:08.082Z,49.43
2023-02-09T12:02:52.121Z,48.88
2023-02-09T12:05:22.786Z,49.36
2023-02-09T12:08:14.020Z,48.38
2023-02-09T12:10:48.524Z,48.87
2023-02-09T12:13:34.010Z,47.41
2023-02-09T12:16:05.485Z,47.88
2023-02-09T12:18:36.375Z,47.81
2023-02-09T12:21:08.290Z,48.10
2023-02-09T12:23:37.070Z,47.14
2023-02-09T12:26:43.413Z,47.11
2023-02-09T12:29:27.416Z,48.20
2023-02-09T12:32:26.510Z,47.53
2023-02-09T12:34:56.337Z,47.57
2023-02-09T12:37:28.082Z,46.97
2023-02-09T12:40:18.877Z,46.76
2023-02-09T12:43:04.301Z,47.72
2023-02-09T12:45:35.578Z,46.79
2023-02-09T12:48:14.339Z,46.43
2023-02-09T12:50:52.413Z,46.44
2023-02-09T12:56:31.804Z,47.15
2023-02-09T12:59:20.647Z,46.89
2023-02-09T13:02:18.090Z,46.70
2023-02-09T13:05:03.446Z,47.88
2023-02-09T13:07:42.182Z,46.59
2023-02-09T13:10:26.528Z,47.43
2023-02-09T13:12:59.540Z,47.41
2023-02-09T13:15:33.957Z,47.71
2023-02-09T13:18:09.951Z,49.22
2023-02-09T13:21:14.022Z,48.32
2023-02-09T13:23:55.027Z,49.00
2023-02-09T13:26:25.785Z,47.78
2023-02-09T13:29:19.911Z,48.73
2023-02-09T13:31:58.755Z,49.18
2023-02-09T13:34:35.528Z,49.03
2023-02-09T13:37:14.681Z,48.34
2023-02-09T13:39:44.172Z,47.98
2023-02-09T13:42:20.591Z,48.20
2023-02-09T13:44:52.486Z,46.82
2023-02-09T13:47:20.543Z,48.10
2023-02-09T13:49:59.745Z,49.71
2023-02-09T13:52:33.748Z,48.00
2023-02-09T13:55:12.555Z,47.33
2023-02-09T13:57:43.397Z,47.56
2023-02-09T14:00:24.835Z,48.80
2023-02-09T14:02:56.597Z,48.69
2023-02-09T14:05:33.870Z,49.05
2023-02-09T14:08:02.207Z,49.13
2023-02-09T14:10:31.111Z,48.78
2023-02-09T14:13:03.679Z,48.54
2023-02-09T14:15:55.794Z,47.16
2023-02-09T14:18:43.052Z,47.11
2023-02-09T14:21:27.082Z,47.73
2023-02-09T14:24:14.983Z,47.31
2023-02-09T14:26:46.997Z,48.03
2023-02-09T14:29:19.066Z,47.43
2023-02-09T14:31:50.246Z,47.16
2023-02-09T14:34:39.858Z,47.21
2023-02-09T14:37:30.767Z,46.04
2023-02-09T14:40:01.892Z,47.14
2023-02-09T14:42:30.342Z,47.45
2023-02-09T14:44:59.972Z,47.76
2023-02-09T14:47:39.441Z,47.21
2023-02-09T14:50:09.043Z,47.79
2023-02-09T14:52:38.948Z,47.69
2023-02-09T14:55:09.300Z,47.23
2023-02-09T14:57:39.658Z,48.42
2023-02-09T15:00:17.999Z,48.82
2023-02-09T15:02:47.382Z,49.35
2023-02-09T15:05:15.752Z,47.60
2023-02-09T15:07:47.045Z,47.74
2023-02-09T15:10:21.711Z,49.49
2023-02-09T15:12:49.667Z,50.08
2023-02-09T15:15:19.949Z,48.67
2023-02-09T15:17:49.181Z,49.64
2023-02-09T15:20:18.403Z,51.42
2023-02-09T15:22:46.142Z,52.26
2023-02-09T15:25:15.104Z,51.84
2023-02-09T15:27:51.241Z,52.56
2023-02-09T15:30:21.901Z,54.28
2023-02-09T15:32:51.546Z,52.81
2023-02-09T15:35:22.046Z,53.47
2023-02-09T15:37:53.342Z,52.79
2023-02-09T15:40:45.477Z,53.13
2023-02-09T15:43:32.805Z,52.17
2023-02-09T15:46:21.008Z,53.29
2023-02-09T15:48:50.213Z,54.40
2023-02-09T15:51:18.429Z,56.85
2023-02-09T15:53:47.162Z,55.57
2023-02-09T15:56:15.858Z,56.94
2023-02-09T15:58:45.803Z,57.33
2023-02-09T16:01:15.526Z,59.47
2023-02-09T16:03:43.976Z,59.82
2023-02-09T16:06:17.061Z,59.96
2023-02-09T16:08:47.690Z,60.95
2023-02-09T16:11:20.563Z,61.25
2023-02-09T16:13:48.540Z,61.67
2023-02-09T16:16:17.880Z,63.26
2023-02-09T16:18:47.251Z,63.84
2023-02-09T16:21:24.248Z,64.97
2023-02-09T16:23:53.742Z,65.02
2023-02-09T16:26:21.472Z,65.69
2023-02-09T16:28:49.259Z,65.64
2023-02-09T16:31:19.395Z,66.33
2023-02-09T16:33:47.717Z,65.89
2023-02-09T16:36:18.992Z,65.61
2023-02-09T16:38:48.322Z,66.20
2023-02-09T16:41:36.174Z,66.71
2023-02-09T16:44:15.316Z,67.65
2023-02-09T16:46:43.267Z,67.43
2023-02-09T16:49:25.757Z,67.32
2023-02-09T16:51:54.149Z,67.18
2023-02-09T16:54:23.403Z,68.42
2023-02-09T16:56:54.472Z,68.51
2023-02-09T16:59:22.601Z,68.81
2023-02-09T17:01:50.472Z,70.29
2023-02-09T17:04:18.381Z,69.12
2023-02-09T17:06:47.724Z,68.65
2023-02-09T17:09:16.502Z,69.58
2023-02-09T17:11:45.610Z,68.72
2023-02-09T17:14:13.428Z,69.32
2023-02-09T17:16:44.714Z,70.07
2023-02-09T17:19:16.081Z,70.67
2023-02-09T17:21:43.804Z,70.14
2023-02-09T17:24:16.753Z,71.11
2023-02-09T17:26:46.110Z,72.73
2023-02-09T17:29:20.080Z,73.09
2023-02-09T17:31:53.679Z,73.69
2023-02-09T17:34:26.960Z,73.59
2023-02-09T17:37:00.846Z,74.57
2023-02-09T17:39:30.746Z,75.66
2023-02-09T17:42:01.029Z,75.67
2023-02-09T17:44:45.077Z,76.33
2023-02-09T17:47:16.490Z,77.03
2023-02-09T17:49:44.558Z,76.77
2023-02-09T17:52:17.072Z,78.00
2023-02-09T17:54:45.478Z,78.88
2023-02-09T17:57:15.582Z,79.29
2023-02-09T17:59:44.022Z,77.68
2023-02-09T18:02:16.657Z,77.77
2023-02-09T18:04:45.262Z,79.71
2023-02-09T18:07:14.444Z,79.30
2023-02-09T18:09:42.155Z,78.93
2023-02-09T18:12:19.248Z,80.46
2023-02-09T18:14:47.292Z,80.80
2023-02-09T18:17:15.066Z,81.09
2023-02-09T18:19:42.784Z,79.89
2023-02-09T18:22:13.598Z,80.13
2023-02-09T18:24:41.784Z,79.90
2023-02-09T18:27:12.605Z,80.53
2023-02-09T18:29:41.783Z,80.58
2023-02-09T18:32:12.647Z,80.69
2023-02-09T18:34:40.446Z,81.30
2023-02-09T18:37:08.193Z,81.13
2023-02-09T18:39:38.550Z,81.74
2023-02-09T18:42:08.094Z,82.35
2023-02-09T18:44:36.087Z,82.19
2023-02-09T18:47:05.688Z,82.55
2023-02-09T18:49:33.440Z,83.46
2023-02-09T18:52:02.374Z,84.05
2023-02-09T18:54:31.223Z,84.26
2023-02-09T18:56:58.972Z,83.46
2023-02-09T18:59:29.410Z,85.76
2023-02-09T19:01:57.264Z,84.10
2023-02-09T19:04:26.467Z,83.03
2023-02-09T19:06:54.390Z,83.36
2023-02-09T19:09:22.125Z,82.62
2023-02-09T19:11:49.867Z,84.01
2023-02-09T19:14:34.946Z,83.75
2023-02-09T19:17:02.739Z,82.08
2023-02-09T19:19:31.861Z,83.81
2023-02-09T19:22:00.290Z,83.97
2023-02-09T19:24:28.795Z,83.19
2023-02-09T19:26:56.679Z,83.87
2023-02-09T19:29:25.884Z,82.19
2023-02-09T19:31:55.621Z,83.69
2023-02-09T19:34:23.766Z,84.29
2023-02-09T19:36:52.946Z,82.27
2023-02-09T19:39:20.661Z,81.31
2023-02-09T19:41:49.087Z,82.54
2023-02-09T19:44:16.924Z,82.19
2023-02-09T19:46:45.549Z,82.91
2023-02-09T19:49:13.422Z,80.99
2023-02-09T19:51:41.155Z,81.20
2023-02-09T19:54:10.312Z,80.70
2023-02-09T19:56:38.250Z,79.91
2023-02-09T19:59:06.012Z,80.61
2023-02-09T20:01:34.119Z,80.06
2023-02-09T20:04:01.953Z,80.79
2023-02-09T20:06:31.075Z,81.33
2023-02-09T20:09:00.172Z,78.47
2023-02-09T20:11:29.554Z,79.28
2023-02-09T20:13:57.353Z,82.26
2023-02-09T20:16:27.585Z,79.38
2023-02-09T20:18:55.873Z,80.77
2023-02-09T20:21:24.863Z,80.82
2023-02-09T20:23:55.722Z,81.91
2023-02-09T20:26:26.652Z,81.06
2023-02-09T20:28:56.834Z,82.37
2023-02-09T20:31:28.036Z,81.34
2023-02-09T20:33:56.384Z,81.93
2023-02-09T20:36:25.626Z,83.31
2023-02-09T20:38:53.686Z,79.62
2023-02-09T20:41:21.468Z,80.40
2023-02-09T20:44:07.000Z,81.76
2023-02-09T20:46:55.862Z,84.13
2023-02-09T20:49:25.791Z,85.00
2023-02-09T20:51:53.807Z,86.52
2023-02-09T20:54:21.682Z,88.64
2023-02-09T20:56:49.422Z,90.47
2023-02-09T20:59:17.991Z,90.68
2023-02-09T21:01:47.946Z,93.83
2023-02-09T21:04:16.409Z,94.55
2023-02-09T21:06:44.154Z,95.85
2023-02-09T21:09:15.364Z,95.29
2023-02-09T21:11:43.492Z,96.33
2023-02-09T21:14:21.786Z,94.77
2023-02-09T21:16:57.192Z,98.03
2023-02-09T21:19:25.292Z,100.00
2023-02-09T21:21:53.408Z,100.00
2023-02-09T21:24:21.821Z,100.00
2023-02-09T21:26:49.581Z,100.00
2023-02-09T21:29:17.361Z,100.00
2023-02-09T21:31:45.815Z,100.00
2023-02-09T21:34:16.233Z,100.00
2023-02-09T21:36:44.303Z,100.00
2023-02-09T21:39:12.360Z,100.00
2023-02-09T21:41:57.529Z,100.00
2023-02-09T21:44:25.244Z,100.00
2023-02-09T21:46:53.873Z,100.00
2023-02-09T21:49:23.105Z,100.00
2023-02-09T21:51:50.887Z,100.00
2023-02-09T21:54:19.564Z,100.00
2023-02-09T21:56:47.296Z,100.00
2023-02-09T21:59:16.229Z,100.00
2023-02-09T22:01:43.942Z,100.00
2023-02-09T22:04:11.696Z,100.00
2023-02-09T22:06:41.678Z,100.00
2023-02-09T22:09:09.623Z,100.00
2023-02-09T22:11:37.375Z,100.00
2023-02-09T22:14:05.189Z,100.00
2023-02-09T22:16:33.310Z,100.00
2023-02-09T22:19:01.200Z,100.00
2023-02-09T22:21:29.088Z,100.00
2023-02-09T22:23:58.204Z,100.00
2023-02-09T22:26:26.031Z,100.00
2023-02-09T22:28:53.755Z,100.00
2023-02-09T22:31:22.683Z,100.00
2023-02-09T22:33:54.198Z,100.00
2023-02-09T22:36:23.290Z,100.00
2023-02-09T22:38:51.587Z,100.00
2023-02-09T22:41:22.968Z,100.00
2023-02-09T22:43:52.034Z,100.00
2023-02-09T22:46:20.693Z,100.00
2023-02-09T22:48:52.325Z,100.00
2023-02-09T22:51:20.095Z,100.00
2023-02-09T22:53:48.090Z,100.00
2023-02-09T22:56:16.129Z,100.00
2023-02-09T22:58:45.171Z,100.00
2023-02-09T23:01:13.121Z,100.00
2023-02-09T23:03:41.518Z,100.00
2023-02-09T23:06:15.715Z,100.00
2023-02-09T23:08:43.477Z,100.00
2023-02-09T23:11:13.936Z,100.00
2023-02-09T23:13:42.307Z,100.00
2023-02-09T23:16:13.915Z,100.00
2023-02-09T23:18:46.597Z,100.00
2023-02-09T23:21:14.446Z,100.00
2023-02-09T23:23:42.377Z,100.00
2023-02-09T23:26:10.621Z,100.00
2023-02-09T23:28:38.412Z,100.00
2023-02-09T23:31:06.725Z,100.00
2023-02-09T23:33:37.161Z,100.00
2023-02-09T23:36:05.985Z,100.00
2023-02-09T23:38:33.788Z,100.00
2023-02-09T23:41:06.826Z,100.00
2023-02-09T23:43:34.873Z,100.00
2023-02-09T23:46:03.152Z,100.00
2023-02-09T23:48:30.930Z,100.00
2023-02-09T23:51:00.822Z,100.00
2023-02-09T23:53:29.036Z,100.00
2023-02-09T23:56:03.558Z,100.00
2023-02-09T23:58:32.430Z,100.00
